sensor_id;sensor_type;location;lat;lon;timestamp;P1;durP1;ratioP1;P2;durP2;ratioP2
71821;SDS011;64096;52.548;13.406;2023-02-28T06:02:19;17.80;;;10.93;;
71821;SDS011;64096;52.548;13.406;2023-02-28T06:04:45;9.88;;;5.57;;
71821;SDS011;64096;52.548;13.406;2023-02-28T06:07:11;9.80;;;4.93;;
71821;SDS011;64096;52.548;13.406;2023-02-28T06:09:37;9.40;;;4.82;;
71821;SDS011;64096;52.548;13.406;2023-02-28T06:12:04;7.72;;;4.15;;
71821;SDS011;64096;52.548;13.406;2023-02-28T06:14:32;9.55;;;6.47;;
71821;SDS011;64096;52.548;13.406;2023-02-28T06:16:59;10.18;;;5.95;;
71821;SDS011;64096;52.548;13.406;2023-02-28T06:19:25;10.13;;;5.13;;
71821;SDS011;64096;52.548;13.406;2023-02-28T06:21:52;9.68;;;5.03;;
71821;SDS011;64096;52.548;13.406;2023-02-28T06:24:22;8.15;;;4.68;;
71821;SDS011;64096;52.548;13.406;2023-02-28T06:26:49;10.43;;;5.25;;
71821;SDS011;64096;52.548;13.406;2023-02-28T06:29:15;8.20;;;4.28;;
71821;SDS011;64096;52.548;13.406;2023-02-28T06:31:46;9.02;;;4.43;;
71821;SDS011;64096;52.548;13.406;2023-02-28T06:34:13;8.70;;;4.63;;
71821;SDS011;64096;52.548;13.406;2023-02-28T06:36:39;9.57;;;6.03;;
71821;SDS011;64096;52.548;13.406;2023-02-28T06:39:06;9.35;;;5.22;;
71821;SDS011;64096;52.548;13.406;2023-02-28T06:41:32;8.68;;;5.13;;
71821;SDS011;64096;52.548;13.406;2023-02-28T06:44:03;9.40;;;4.53;;
71821;SDS011;64096;52.548;13.406;2023-02-28T06:46:29;9.25;;;5.03;;
71821;SDS011;64096;52.548;13.406;2023-02-28T06:48:55;10.07;;;5.65;;
71821;SDS011;64096;52.548;13.406;2023-02-28T06:51:21;13.93;;;7.85;;
71821;SDS011;64096;52.548;13.406;2023-02-28T06:53:49;10.25;;;6.22;;
71821;SDS011;64096;52.548;13.406;2023-02-28T06:56:15;9.75;;;4.80;;
71821;SDS011;64096;52.548;13.406;2023-02-28T06:58:41;10.68;;;5.32;;
71821;SDS011;64096;52.548;13.406;2023-02-28T07:01:08;9.27;;;4.97;;
71821;SDS011;64096;52.548;13.406;2023-02-28T07:03:35;10.77;;;6.20;;
71821;SDS011;64096;52.548;13.406;2023-02-28T07:06:01;9.52;;;5.82;;
71821;SDS011;64096;52.548;13.406;2023-02-28T07:08:29;10.35;;;6.50;;
71821;SDS011;64096;52.548;13.406;2023-02-28T07:10:56;16.38;;;8.90;;
71821;SDS011;64096;52.548;13.406;2023-02-28T07:13:23;11.05;;;6.65;;
71821;SDS011;64096;52.548;13.406;2023-02-28T07:15:53;10.23;;;6.30;;
71821;SDS011;64096;52.548;13.406;2023-02-28T07:18:19;12.25;;;6.60;;
71821;SDS011;64096;52.548;13.406;2023-02-28T07:20:45;14.13;;;8.02;;
71821;SDS011;64096;52.548;13.406;2023-02-28T07:23:11;15.07;;;9.75;;
71821;SDS011;64096;52.548;13.406;2023-02-28T07:25:37;14.35;;;8.43;;
71821;SDS011;64096;52.548;13.406;2023-02-28T07:28:04;12.50;;;7.68;;
71821;SDS011;64096;52.548;13.406;2023-02-28T07:30:30;15.30;;;9.15;;
71821;SDS011;64096;52.548;13.406;2023-02-28T07:32:56;15.95;;;9.38;;
71821;SDS011;64096;52.548;13.406;2023-02-28T07:35:22;13.88;;;7.65;;
71821;SDS011;64096;52.548;13.406;2023-02-28T07:37:48;12.57;;;6.65;;
71821;SDS011;64096;52.548;13.406;2023-02-28T07:40:15;11.82;;;7.20;;
71821;SDS011;64096;52.548;13.406;2023-02-28T07:42:42;11.55;;;6.88;;
71821;SDS011;64096;52.548;13.406;2023-02-28T07:45:09;11.27;;;6.68;;
71821;SDS011;64096;52.548;13.406;2023-02-28T07:47:39;11.52;;;6.40;;
71821;SDS011;64096;52.548;13.406;2023-02-28T07:50:06;9.95;;;5.65;;
71821;SDS011;64096;52.548;13.406;2023-02-28T07:52:32;10.10;;;5.90;;
71821;SDS011;64096;52.548;13.406;2023-02-28T07:54:58;9.13;;;5.47;;
71821;SDS011;64096;52.548;13.406;2023-02-28T07:57:24;9.13;;;5.93;;
71821;SDS011;64096;52.548;13.406;2023-02-28T07:59:50;9.30;;;4.43;;
71821;SDS011;64096;52.548;13.406;2023-02-28T08:02:17;8.38;;;3.72;;
71821;SDS011;64096;52.548;13.406;2023-02-28T08:04:43;7.40;;;3.60;;
71821;SDS011;64096;52.548;13.406;2023-02-28T08:07:10;9.18;;;4.70;;
71821;SDS011;64096;52.548;13.406;2023-02-28T08:09:38;7.57;;;4.40;;
71821;SDS011;64096;52.548;13.406;2023-02-28T08:12:04;7.22;;;3.70;;
71821;SDS011;64096;52.548;13.406;2023-02-28T08:14:30;6.07;;;3.30;;
71821;SDS011;64096;52.548;13.406;2023-02-28T08:16:57;6.78;;;3.42;;
71821;SDS011;64096;52.548;13.406;2023-02-28T08:19:23;8.60;;;4.82;;
71821;SDS011;64096;52.548;13.406;2023-02-28T08:21:49;8.10;;;4.68;;
71821;SDS011;64096;52.548;13.406;2023-02-28T08:24:15;8.48;;;4.45;;
71821;SDS011;64096;52.548;13.406;2023-02-28T08:26:41;7.25;;;3.78;;
71821;SDS011;64096;52.548;13.406;2023-02-28T08:29:07;6.20;;;3.42;;
71821;SDS011;64096;52.548;13.406;2023-02-28T08:31:33;7.18;;;3.53;;
71821;SDS011;64096;52.548;13.406;2023-02-28T08:34:04;6.03;;;2.95;;
71821;SDS011;64096;52.548;13.406;2023-02-28T08:36:30;7.30;;;3.13;;
71821;SDS011;64096;52.548;13.406;2023-02-28T08:38:57;6.55;;;2.97;;
71821;SDS011;64096;52.548;13.406;2023-02-28T08:41:24;5.32;;;2.60;;
71821;SDS011;64096;52.548;13.406;2023-02-28T08:43:50;4.90;;;2.13;;
71821;SDS011;64096;52.548;13.406;2023-02-28T08:46:17;4.68;;;2.20;;
71821;SDS011;64096;52.548;13.406;2023-02-28T08:48:43;4.90;;;2.17;;
71821;SDS011;64096;52.548;13.406;2023-02-28T08:51:10;6.72;;;2.63;;
71821;SDS011;64096;52.548;13.406;2023-02-28T08:53:37;5.38;;;2.17;;
71821;SDS011;64096;52.548;13.406;2023-02-28T08:56:05;5.47;;;2.20;;
71821;SDS011;64096;52.548;13.406;2023-02-28T08:58:32;4.97;;;1.73;;
71821;SDS011;64096;52.548;13.406;2023-02-28T09:00:59;3.50;;;1.42;;
71821;SDS011;64096;52.548;13.406;2023-02-28T09:03:25;3.22;;;1.63;;
71821;SDS011;64096;52.548;13.406;2023-02-28T09:05:58;3.60;;;1.88;;
71821;SDS011;64096;52.548;13.406;2023-02-28T09:08:25;3.50;;;1.40;;
71821;SDS011;64096;52.548;13.406;2023-02-28T09:10:52;5.35;;;1.75;;
71821;SDS011;64096;52.548;13.406;2023-02-28T09:13:19;4.93;;;2.13;;
71821;SDS011;64096;52.548;13.406;2023-02-28T09:15:46;4.88;;;1.95;;
71821;SDS011;64096;52.548;13.406;2023-02-28T09:18:12;4.88;;;2.05;;
71821;SDS011;64096;52.548;13.406;2023-02-28T09:20:38;4.10;;;1.90;;
71821;SDS011;64096;52.548;13.406;2023-02-28T09:23:05;5.38;;;2.00;;
71821;SDS011;64096;52.548;13.406;2023-02-28T09:25:32;7.15;;;2.40;;
71821;SDS011;64096;52.548;13.406;2023-02-28T09:27:58;4.88;;;2.25;;
71821;SDS011;64096;52.548;13.406;2023-02-28T09:30:24;5.32;;;2.00;;
71821;SDS011;64096;52.548;13.406;2023-02-28T09:32:50;3.63;;;1.88;;
71821;SDS011;64096;52.548;13.406;2023-02-28T09:35:20;4.25;;;1.73;;
71821;SDS011;64096;52.548;13.406;2023-02-28T09:37:49;4.78;;;1.70;;
71821;SDS011;64096;52.548;13.406;2023-02-28T09:40:17;3.13;;;1.30;;
71821;SDS011;64096;52.548;13.406;2023-02-28T09:42:44;13.18;;;8.90;;
71821;SDS011;64096;52.548;13.406;2023-02-28T09:45:15;7.93;;;3.75;;
71821;SDS011;64096;52.548;13.406;2023-02-28T09:47:45;4.60;;;2.22;;
71821;SDS011;64096;52.548;13.406;2023-02-28T09:52:49;3.58;;;1.30;;
71821;SDS011;64096;52.548;13.406;2023-02-28T09:57:43;3.85;;;1.45;;
71821;SDS011;64096;52.548;13.406;2023-02-28T10:00:19;3.08;;;1.20;;
71821;SDS011;64096;52.548;13.406;2023-02-28T10:03:22;4.03;;;1.53;;
71821;SDS011;64096;52.548;13.406;2023-02-28T10:08:31;3.75;;;1.60;;
71821;SDS011;64096;52.548;13.406;2023-02-28T10:11:00;4.75;;;1.70;;
71821;SDS011;64096;52.548;13.406;2023-02-28T10:13:39;3.85;;;1.27;;
71821;SDS011;64096;52.548;13.406;2023-02-28T10:16:14;3.72;;;1.48;;
71821;SDS011;64096;52.548;13.406;2023-02-28T10:18:49;3.80;;;1.52;;
71821;SDS011;64096;52.548;13.406;2023-02-28T10:21:21;3.85;;;1.63;;
71821;SDS011;64096;52.548;13.406;2023-02-28T10:23:47;4.13;;;1.33;;
71821;SDS011;64096;52.548;13.406;2023-02-28T10:26:16;3.40;;;1.30;;
71821;SDS011;64096;52.548;13.406;2023-02-28T10:28:42;4.10;;;1.58;;
71821;SDS011;64096;52.548;13.406;2023-02-28T10:31:13;4.00;;;1.50;;
71821;SDS011;64096;52.548;13.406;2023-02-28T10:33:41;3.33;;;1.30;;
71821;SDS011;64096;52.548;13.406;2023-02-28T10:36:08;2.92;;;1.38;;
71821;SDS011;64096;52.548;13.406;2023-02-28T10:38:37;3.72;;;1.42;;
71821;SDS011;64096;52.548;13.406;2023-02-28T10:41:07;4.43;;;1.73;;
71821;SDS011;64096;52.548;13.406;2023-02-28T10:43:34;3.40;;;1.60;;
71821;SDS011;64096;52.548;13.406;2023-02-28T10:51:02;3.63;;;1.52;;
71821;SDS011;64096;52.548;13.406;2023-02-28T10:53:36;3.10;;;1.40;;
71821;SDS011;64096;52.548;13.406;2023-02-28T11:01:17;3.75;;;1.42;;
71821;SDS011;64096;52.548;13.406;2023-02-28T11:03:44;3.92;;;1.40;;
71821;SDS011;64096;52.548;13.406;2023-02-28T11:06:15;3.33;;;1.52;;
71821;SDS011;64096;52.548;13.406;2023-02-28T11:08:45;3.15;;;1.50;;
71821;SDS011;64096;52.548;13.406;2023-02-28T11:11:12;4.53;;;1.77;;
71821;SDS011;64096;52.548;13.406;2023-02-28T11:13:38;5.72;;;2.20;;
71821;SDS011;64096;52.548;13.406;2023-02-28T11:16:06;5.72;;;1.92;;
71821;SDS011;64096;52.548;13.406;2023-02-28T11:19:06;4.00;;;1.83;;
71821;SDS011;64096;52.548;13.406;2023-02-28T11:21:29;4.80;;;2.00;;
71821;SDS011;64096;52.548;13.406;2023-02-28T11:24:40;3.38;;;1.50;;
71821;SDS011;64096;52.548;13.406;2023-02-28T11:26:46;3.22;;;1.58;;
71821;SDS011;64096;52.548;13.406;2023-02-28T11:29:23;3.35;;;1.40;;
71821;SDS011;64096;52.548;13.406;2023-02-28T11:32:04;4.30;;;1.58;;
71821;SDS011;64096;52.548;13.406;2023-02-28T11:34:31;3.72;;;1.70;;
71821;SDS011;64096;52.548;13.406;2023-02-28T11:36:58;3.65;;;1.85;;
71821;SDS011;64096;52.548;13.406;2023-02-28T11:39:25;5.78;;;2.53;;
71821;SDS011;64096;52.548;13.406;2023-02-28T11:42:07;5.53;;;2.10;;
71821;SDS011;64096;52.548;13.406;2023-02-28T11:47:12;4.43;;;1.80;;
71821;SDS011;64096;52.548;13.406;2023-02-28T11:49:48;3.75;;;1.88;;
71821;SDS011;64096;52.548;13.406;2023-02-28T12:10:59;4.50;;;2.10;;
71821;SDS011;64096;52.548;13.406;2023-02-28T12:26:38;5.15;;;2.70;;
71821;SDS011;64096;52.548;13.406;2023-02-28T12:31:35;3.88;;;1.83;;
71821;SDS011;64096;52.548;13.406;2023-02-28T12:34:07;3.70;;;1.80;;
71821;SDS011;64096;52.548;13.406;2023-02-28T12:39:06;4.38;;;1.85;;
71821;SDS011;64096;52.548;13.406;2023-02-28T12:41:48;3.88;;;1.70;;
71821;SDS011;64096;52.548;13.406;2023-02-28T12:44:17;4.95;;;2.10;;
71821;SDS011;64096;52.548;13.406;2023-02-28T12:46:47;7.15;;;3.53;;
71821;SDS011;64096;52.548;13.406;2023-02-28T12:49:19;8.60;;;5.63;;
71821;SDS011;64096;52.548;13.406;2023-02-28T12:59:34;8.45;;;3.20;;
71821;SDS011;64096;52.548;13.406;2023-02-28T13:09:55;5.32;;;2.03;;
71821;SDS011;64096;52.548;13.406;2023-02-28T13:12:22;4.07;;;2.30;;
71821;SDS011;64096;52.548;13.406;2023-02-28T13:14:48;4.65;;;2.08;;
71821;SDS011;64096;52.548;13.406;2023-02-28T13:17:24;6.30;;;2.60;;
71821;SDS011;64096;52.548;13.406;2023-02-28T13:25:03;4.55;;;2.40;;
71821;SDS011;64096;52.548;13.406;2023-02-28T13:27:52;6.60;;;2.90;;
71821;SDS011;64096;52.548;13.406;2023-02-28T13:35:48;6.43;;;2.92;;
71821;SDS011;64096;52.548;13.406;2023-02-28T13:38:25;8.27;;;2.60;;
71821;SDS011;64096;52.548;13.406;2023-02-28T13:41:21;5.43;;;2.60;;
71821;SDS011;64096;52.548;13.406;2023-02-28T13:44:03;5.38;;;2.63;;
71821;SDS011;64096;52.548;13.406;2023-02-28T13:46:35;6.00;;;2.30;;
